Plainview, TX

10:31 PM CST on December 26, 2014 (GMT -0600)
Lubbock International | Change Station
CLOSE
Current Station
Airport
Location: Lubbock,
Elevation: 3241 ft
Nearby Weather Stations

Elev 3241 ft 33.67 °N, 101.82 °W | Updated 30 minutes ago

Snow
Snow
35 °F
Feels Like 26 °F
N
15
Wind Variable Wind from North

Today
High -- | Low -- °F
--% Chance of Precip.
Yesterday
High -- | Low -- °F
Precip. -- in
7:51 AM 5:44 PM
Waxing Crescent, 32% visible
Pressure 30.07 in
Visibility 7.0 miles
Clouds Mostly Cloudy 3500 ft
Mostly Cloudy 4700 ft
Overcast 5500 ft
Windchill 26 °F
Dew Point 27 °F
Humidity 72%
Rainfall 0.00 in
Snow Depth Not available.
UV 0 out of 12
Pollen 8.70 out of 12
Air Quality Not available.
Flu Activity Not available.
SPECI KLBB 270401Z 36013KT 7SM -SN BKN035 BKN047 OVC055 02/M03 A3007 RMK AO2 PLE01 P0000 T00171028

More Conditions Fewer Conditions

Pressure 30.07 in
Visibility 7.0 miles
Clouds Mostly Cloudy 3500 ft
Mostly Cloudy 4700 ft
Overcast 5500 ft
Windchill 26 °F
Dew Point 27 °F
Humidity 72%
Rainfall 0.00 in
Snow Depth Not available.
UV 0 out of 12
Pollen 8.70 out of 12
Air Quality Not available.
Flu Activity Not available.
SPECI KLBB 270401Z 36013KT 7SM -SN BKN035 BKN047 OVC055 02/M03 A3007 RMK AO2 PLE01 P0000 T00171028

More Conditions Fewer Conditions

Nowcast | as of 10:11 PM CST on December 26, 2014

Through midnight...periods of light rain will continue transitioning to light sleet and snow. However...very little to no accumulation is expected. Nonetheless...caution should be exercised on elevated surfaces with temperatures continuing to drop.

×

10-Day Weather Forecast

Almanac

Astronomy

Dec. 26, 2014 Rise Set
Actual Time
Civil Twilight
Nautical Twilight
Astronomical Twilight
Moon
Length of Visible Light
Length of Day
Tomorrow will be .
, % of the Moon is Illuminated

Today's Extremes

State Highs State Lows

Community

WunderPhotos

Upload Photos

1,780,847 photos uploaded!

WunderBlogs® & News

Nearby

Air Quality

  Air Quality AQ Index Pollutant
Not available.

Snow Depth

Station Depth Elevation

Earthquake Activity

City Distance Mag. Time & Date
Minimum magnitude displayed is 2.5.

Coastal Water Temperatures

Place Temperature

Nearby Weather Stations